Time;durP1;ratioP1;P1;durP2;ratioP2;P2;SDS_P1;SDS_P2;PMS_P1;PMS_P2;Temp;Humidity;BMP_temperature;BMP_pressure;BME280_temperature;BME280_humidity;BME280_pressure;Samples;Min_cycle;Max_cycle;Signal;HPM_P1;HPM_P2
2022/01/08 00:01:09;;;;;;;25.17;12.00;;;-0.60;94.10;;;;;;5166554;27;20111;-77
2022/01/08 00:03:36;;;;;;;33.30;14.70;;;-0.60;94.30;;;;;;5162526;27;20070;-78
2022/01/08 00:06:03;;;;;;;28.40;13.07;;;-0.60;94.50;;;;;;5165939;27;20048;-76
2022/01/08 00:08:31;;;;;;;31.77;13.85;;;-0.60;94.80;;;;;;5165613;27;20047;-76
2022/01/08 00:10:58;;;;;;;27.48;13.20;;;-0.60;94.90;;;;;;5158777;27;20131;-77
2022/01/08 00:13:24;;;;;;;30.33;12.85;;;-0.60;94.90;;;;;;5166924;27;20043;-75
2022/01/08 00:15:51;;;;;;;34.97;15.50;;;-0.70;94.90;;;;;;5164593;27;20092;-77
2022/01/08 00:18:19;;;;;;;32.92;14.52;;;-0.70;95.00;;;;;;5163182;27;20028;-77
2022/01/08 00:20:46;;;;;;;28.20;13.98;;;-0.70;95.00;;;;;;5167950;27;20039;-76
2022/01/08 00:23:13;;;;;;;26.60;13.32;;;-0.70;95.10;;;;;;5156774;27;20050;-76
2022/01/08 00:25:40;;;;;;;28.77;13.90;;;-0.70;95.20;;;;;;5159184;27;20135;-77
2022/01/08 00:28:06;;;;;;;32.67;16.67;;;-0.70;95.10;;;;;;5165565;27;20059;-77
2022/01/08 00:30:33;;;;;;;30.48;14.57;;;-0.70;95.30;;;;;;5162894;27;20532;-77
2022/01/08 00:33:00;;;;;;;27.83;14.40;;;-0.70;95.50;;;;;;5160720;27;20059;-75
2022/01/08 00:35:27;;;;;;;38.72;16.73;;;-0.70;95.50;;;;;;5165184;27;20031;-76
2022/01/08 00:37:54;;;;;;;39.00;16.27;;;-0.80;95.50;;;;;;5164274;27;20091;-77
2022/01/08 00:40:21;;;;;;;29.45;14.25;;;-0.80;95.40;;;;;;5163435;27;20058;-77
2022/01/08 00:42:48;;;;;;;37.05;14.52;;;-0.80;95.50;;;;;;5162889;27;20073;-76
2022/01/08 00:45:14;;;;;;;30.95;15.88;;;-0.70;95.60;;;;;;5166451;27;20055;-77
2022/01/08 00:47:41;;;;;;;40.05;14.60;;;-0.70;95.70;;;;;;5162101;27;20087;-77
2022/01/08 00:50:10;;;;;;;32.67;12.93;;;-0.70;95.70;;;;;;5165403;27;20157;-77
2022/01/08 00:52:42;;;;;;;30.10;13.80;;;-0.80;95.60;;;;;;5160822;27;20039;-75
2022/01/08 00:55:10;;;;;;;33.78;15.07;;;-0.70;95.50;;;;;;5158451;27;20115;-75
2022/01/08 00:57:37;;;;;;;34.47;14.85;;;-0.80;95.50;;;;;;5158677;27;20955;-76
2022/01/08 01:00:06;;;;;;;35.70;14.02;;;-0.80;95.40;;;;;;5162757;27;20097;-76
2022/01/08 01:02:33;;;;;;;35.22;13.70;;;-0.80;95.50;;;;;;5159609;27;20054;-76
2022/01/08 01:05:00;;;;;;;25.08;12.95;;;-0.80;95.40;;;;;;5163181;27;20050;-76
2022/01/08 01:07:26;;;;;;;25.95;12.25;;;-0.90;95.40;;;;;;5163036;27;20071;-77
2022/01/08 01:09:53;;;;;;;31.92;13.63;;;-0.90;95.30;;;;;;5161271;27;20166;-77
2022/01/08 01:12:20;;;;;;;37.58;14.43;;;-0.90;95.20;;;;;;5156876;27;20099;-77
2022/01/08 01:15:08;;;;;;;23.98;13.05;;;-0.90;95.20;;;;;;5166913;27;20049;-76
2022/01/08 01:17:36;;;;;;;30.60;13.55;;;-1.00;95.20;;;;;;5161692;27;20051;-76
2022/01/08 01:20:04;;;;;;;35.28;14.63;;;-1.00;95.10;;;;;;5168104;27;20035;-76
2022/01/08 01:22:41;;;;;;;29.50;13.50;;;-1.00;95.10;;;;;;5161372;27;20051;-77
2022/01/08 01:25:11;;;;;;;32.92;13.43;;;-1.00;95.20;;;;;;5157957;27;20074;-77
2022/01/08 01:27:56;;;;;;;33.15;13.30;;;-1.00;95.30;;;;;;5157713;27;20059;-77
2022/01/08 01:41:49;;;;;;;30.40;13.73;;;-1.10;95.50;;;;;;5161303;27;20031;-77
2022/01/08 01:49:30;;;;;;;32.55;11.88;;;-1.10;95.60;;;;;;5165332;27;20036;-76
2022/01/08 01:51:59;;;;;;;26.95;11.35;;;-1.10;95.60;;;;;;5166936;27;20087;-76
2022/01/08 01:54:28;;;;;;;32.85;11.82;;;-1.10;95.50;;;;;;5155952;27;20046;-75
2022/01/08 01:56:57;;;;;;;31.42;12.70;;;-1.10;95.60;;;;;;5163631;27;20065;-75
2022/01/08 01:59:31;;;;;;;32.92;11.30;;;-1.10;95.60;;;;;;5158187;27;20123;-77
2022/01/08 02:01:59;;;;;;;32.13;12.20;;;-1.10;95.70;;;;;;5161753;27;20046;-76
2022/01/08 02:04:26;;;;;;;12.88;6.18;;;-1.10;95.80;;;;;;5158560;27;21287;-77
2022/01/08 02:06:53;;;;;;;20.60;9.65;;;-1.00;96.00;;;;;;5167507;27;20098;-76
2022/01/08 02:09:19;;;;;;;22.40;11.23;;;-0.80;96.40;;;;;;5161418;27;20047;-75
2022/01/08 02:11:59;;;;;;;30.17;11.18;;;-0.70;96.30;;;;;;5161146;27;20023;-76
2022/01/08 02:14:28;;;;;;;29.05;10.75;;;-0.70;96.20;;;;;;5160339;27;20103;-77
2022/01/08 02:16:55;;;;;;;22.70;11.00;;;-0.70;96.00;;;;;;5159498;27;20107;-75
2022/01/08 02:19:22;;;;;;;29.15;11.77;;;-0.60;96.10;;;;;;5162824;27;20047;-75
2022/01/08 02:21:58;;;;;;;29.33;11.60;;;-0.50;96.10;;;;;;5160982;27;20094;-75
2022/01/08 02:24:26;;;;;;;27.60;10.38;;;-0.50;96.00;;;;;;5161832;27;20631;-75
2022/01/08 02:26:53;;;;;;;22.88;10.18;;;-0.50;95.80;;;;;;5162622;27;20054;-77
2022/01/08 02:29:21;;;;;;;19.60;9.95;;;-0.60;95.60;;;;;;5160008;27;20061;-77
2022/01/08 02:31:57;;;;;;;36.38;10.95;;;-0.60;95.60;;;;;;5159834;27;20031;-75
2022/01/08 02:34:26;;;;;;;20.08;9.50;;;-0.70;95.70;;;;;;5155933;27;20099;-75
2022/01/08 02:36:57;;;;;;;20.20;9.88;;;-0.70;95.70;;;;;;5160460;27;20063;-75
2022/01/08 02:39:24;;;;;;;17.75;9.55;;;-0.70;95.50;;;;;;5157352;27;20058;-77
2022/01/08 02:41:56;;;;;;;31.35;10.48;;;-0.70;95.60;;;;;;5161787;27;20092;-77
2022/01/08 02:44:24;;;;;;;30.77;10.43;;;-0.70;95.50;;;;;;5161820;27;20087;-76
2022/01/08 02:46:51;;;;;;;18.98;9.85;;;-0.80;95.60;;;;;;5158413;27;20059;-76
2022/01/08 02:49:18;;;;;;;28.48;11.75;;;-0.80;95.60;;;;;;5162976;27;20043;-76
2022/01/08 02:51:47;;;;;;;30.33;11.10;;;-0.80;95.40;;;;;;5163377;27;20037;-77
2022/01/08 02:54:14;;;;;;;34.58;10.98;;;-0.80;95.40;;;;;;5154944;27;20047;-75
2022/01/08 02:56:43;;;;;;;31.13;11.05;;;-0.80;95.40;;;;;;5154771;27;20039;-77
2022/01/08 02:59:12;;;;;;;24.40;12.25;;;-0.90;95.40;;;;;;5167848;27;20111;-76
2022/01/08 03:01:39;;;;;;;24.58;10.38;;;-0.90;95.40;;;;;;5160358;27;20048;-75
2022/01/08 03:04:07;;;;;;;28.35;10.77;;;-1.00;95.40;;;;;;5163391;27;20027;-77
2022/01/08 03:06:34;;;;;;;21.17;10.20;;;-1.00;95.40;;;;;;5161230;27;20039;-76
2022/01/08 03:09:01;;;;;;;24.60;10.13;;;-1.10;95.30;;;;;;5158198;27;20044;-75
2022/01/08 03:11:27;;;;;;;20.63;10.07;;;-1.10;95.20;;;;;;5165207;27;20075;-76
2022/01/08 03:13:54;;;;;;;26.13;10.90;;;-1.10;95.20;;;;;;5164027;27;20065;-77
2022/01/08 03:16:21;;;;;;;26.50;11.68;;;-1.20;95.10;;;;;;5160005;27;20092;-77
2022/01/08 03:18:48;;;;;;;22.67;10.00;;;-1.20;95.10;;;;;;5161705;27;20083;-76
2022/01/08 03:21:20;;;;;;;24.70;9.75;;;-1.30;95.20;;;;;;5164392;27;20028;-77
2022/01/08 03:23:56;;;;;;;23.58;10.25;;;-1.30;95.10;;;;;;5162042;27;20618;-76
2022/01/08 03:26:26;;;;;;;22.15;11.20;;;-1.30;95.20;;;;;;5161402;27;20110;-77
2022/01/08 03:28:54;;;;;;;21.90;10.05;;;-1.40;95.20;;;;;;5160290;27;20095;-77
2022/01/08 03:31:23;;;;;;;29.75;10.55;;;-1.40;95.20;;;;;;5156061;27;20035;-76
2022/01/08 03:33:52;;;;;;;24.98;9.80;;;-1.40;95.10;;;;;;5165443;27;20102;-77
2022/01/08 03:36:21;;;;;;;23.23;9.35;;;-1.40;95.00;;;;;;5163147;27;20024;-76
2022/01/08 03:38:49;;;;;;;26.73;9.48;;;-1.50;95.10;;;;;;5167348;27;20103;-78
2022/01/08 03:41:20;;;;;;;16.77;8.32;;;-1.50;95.10;;;;;;5157281;27;20052;-75
2022/01/08 03:43:46;;;;;;;28.48;9.40;;;-1.50;95.10;;;;;;5156638;27;20104;-76
2022/01/08 03:46:13;;;;;;;22.25;8.82;;;-1.50;95.20;;;;;;5167678;27;20100;-78
2022/01/08 03:48:58;;;;;;;30.15;9.52;;;-1.50;95.20;;;;;;5158964;27;20100;-76
2022/01/08 03:51:25;;;;;;;23.92;9.13;;;-1.60;95.10;;;;;;5163991;27;20051;-75
2022/01/08 03:53:51;;;;;;;19.83;8.13;;;-1.50;95.20;;;;;;5161500;27;20110;-76
2022/01/08 03:56:18;;;;;;;24.20;8.98;;;-1.60;95.20;;;;;;5163059;27;20099;-77
2022/01/08 03:58:45;;;;;;;18.67;8.90;;;-1.60;95.10;;;;;;5157416;27;20873;-75
2022/01/08 04:01:14;;;;;;;27.50;9.40;;;-1.60;95.40;;;;;;5160901;27;20060;-76
2022/01/08 04:03:41;;;;;;;29.73;9.82;;;-1.50;95.60;;;;;;5169011;27;20043;-77
2022/01/08 04:06:08;;;;;;;22.65;9.77;;;-1.50;95.70;;;;;;5161017;27;20040;-77
2022/01/08 04:08:35;;;;;;;23.40;9.77;;;-1.50;95.70;;;;;;5164995;27;20113;-77
2022/01/08 04:11:02;;;;;;;24.50;9.07;;;-1.50;95.60;;;;;;5165567;27;20981;-75
2022/01/08 04:13:32;;;;;;;27.02;9.10;;;-1.50;95.50;;;;;;5158396;27;20036;-76
2022/01/08 04:16:09;;;;;;;30.63;10.52;;;-1.60;95.40;;;;;;5164160;27;20055;-76
2022/01/08 04:18:35;;;;;;;19.73;9.13;;;-1.60;95.40;;;;;;5157392;27;20059;-77
2022/01/08 04:23:35;;;;;;;23.03;9.17;;;-1.70;95.40;;;;;;5155870;27;20032;-75
2022/01/08 04:26:02;;;;;;;20.92;9.88;;;-1.70;95.40;;;;;;5159738;27;20249;-76
2022/01/08 04:28:29;;;;;;;26.77;9.05;;;-1.70;95.40;;;;;;5156712;27;20142;-76
2022/01/08 04:30:56;;;;;;;21.20;9.13;;;-1.70;95.30;;;;;;5160930;27;20028;-76
2022/01/08 04:33:23;;;;;;;22.67;9.88;;;-1.80;95.20;;;;;;5156359;27;20043;-77
2022/01/08 04:35:51;;;;;;;26.80;10.00;;;-1.80;95.20;;;;;;5158556;27;20063;-75
2022/01/08 04:38:17;;;;;;;30.50;10.32;;;-1.80;95.20;;;;;;5149419;27;20099;-75
2022/01/08 04:40:44;;;;;;;24.38;9.02;;;-1.90;95.20;;;;;;5150427;27;20880;-75
2022/01/08 04:43:11;;;;;;;22.35;8.70;;;-1.90;95.10;;;;;;5162241;27;20043;-76
2022/01/08 04:45:38;;;;;;;24.42;10.00;;;-1.90;95.20;;;;;;5155215;27;20059;-75
2022/01/08 04:48:06;;;;;;;25.63;8.95;;;-2.00;95.20;;;;;;5155311;27;20633;-76
2022/01/08 04:50:33;;;;;;;28.13;9.90;;;-2.00;95.20;;;;;;5152441;27;20102;-77
2022/01/08 04:53:00;;;;;;;16.75;8.77;;;-2.00;95.30;;;;;;5158934;27;20071;-76
2022/01/08 04:55:26;;;;;;;19.38;8.60;;;-2.00;95.30;;;;;;5154444;27;20077;-78
2022/01/08 04:57:53;;;;;;;23.85;8.15;;;-2.10;95.20;;;;;;5154774;27;20044;-77
2022/01/08 05:00:21;;;;;;;19.08;8.52;;;-2.10;95.10;;;;;;5161519;27;20065;-77
2022/01/08 05:02:48;;;;;;;31.00;9.18;;;-2.10;95.10;;;;;;5156981;27;20185;-75
2022/01/08 05:05:21;;;;;;;23.38;8.75;;;-2.10;95.10;;;;;;5153715;27;20039;-78
2022/01/08 05:07:47;;;;;;;26.17;8.93;;;-2.10;95.10;;;;;;5153581;27;20141;-75
2022/01/08 05:10:14;;;;;;;27.58;9.57;;;-2.20;95.10;;;;;;5147691;27;20032;-76
2022/01/08 05:12:42;;;;;;;22.27;9.63;;;-2.10;95.20;;;;;;5151424;27;20056;-76
2022/01/08 05:15:09;;;;;;;26.73;10.30;;;-2.20;95.30;;;;;;5154310;27;20057;-76
2022/01/08 05:17:37;;;;;;;29.45;9.80;;;-2.20;95.40;;;;;;5149043;27;20071;-75
2022/01/08 05:20:08;;;;;;;23.85;8.65;;;-2.20;95.40;;;;;;5150444;27;20047;-75
2022/01/08 05:25:19;;;;;;;20.70;8.65;;;-2.20;95.70;;;;;;5151743;27;20437;-75
2022/01/08 05:27:48;;;;;;;22.77;8.68;;;-2.20;95.60;;;;;;5158067;27;20053;-77
2022/01/08 05:30:18;;;;;;;29.25;9.77;;;-2.20;95.70;;;;;;5154581;27;20066;-76
2022/01/08 05:32:44;;;;;;;20.73;8.15;;;-2.10;95.80;;;;;;5156501;27;20047;-75
2022/01/08 05:35:11;;;;;;;26.58;8.05;;;-2.10;95.90;;;;;;5150603;27;20046;-76
2022/01/08 05:37:47;;;;;;;25.95;8.35;;;-2.10;96.00;;;;;;5143653;27;20043;-78
2022/01/08 05:40:14;;;;;;;29.30;8.85;;;-2.00;96.00;;;;;;5149219;27;20784;-76
2022/01/08 05:42:43;;;;;;;34.80;9.80;;;-2.00;96.10;;;;;;5148070;27;20051;-75
2022/01/08 05:45:14;;;;;;;23.80;9.23;;;-1.90;96.20;;;;;;5144760;27;20677;-75
2022/01/08 05:47:44;;;;;;;27.47;10.50;;;-1.90;96.40;;;;;;5149435;27;20042;-75
2022/01/08 05:50:18;;;;;;;32.90;10.70;;;-1.80;96.40;;;;;;5143751;27;20050;-74
2022/01/08 05:52:48;;;;;;;35.33;10.75;;;-1.70;96.50;;;;;;5152557;27;20052;-75
2022/01/08 05:55:17;;;;;;;28.52;9.88;;;-1.70;96.70;;;;;;5148029;27;20043;-75
2022/01/08 05:57:44;;;;;;;22.92;8.35;;;-1.60;96.80;;;;;;5151549;27;20051;-75
2022/01/08 06:00:13;;;;;;;35.78;8.38;;;-1.60;96.70;;;;;;5147296;27;20601;-75
2022/01/08 06:02:40;;;;;;;24.00;9.55;;;-1.60;96.80;;;;;;5150366;27;20051;-75
2022/01/08 06:05:07;;;;;;;20.50;7.97;;;-1.50;96.70;;;;;;5148944;27;20142;-75
2022/01/08 06:07:34;;;;;;;28.67;7.82;;;-1.60;96.70;;;;;;5142306;27;20878;-76
2022/01/08 06:10:02;;;;;;;19.13;7.97;;;-1.50;96.70;;;;;;5136295;27;20877;-75
2022/01/08 06:12:29;;;;;;;19.83;8.40;;;-1.50;96.70;;;;;;5147100;27;20047;-76
2022/01/08 06:14:55;;;;;;;22.67;8.80;;;-1.50;96.70;;;;;;5148193;27;20043;-75
2022/01/08 06:17:22;;;;;;;21.88;8.57;;;-1.50;96.60;;;;;;5143972;27;20904;-78
2022/01/08 06:19:49;;;;;;;25.65;8.75;;;-1.50;96.70;;;;;;5147164;27;20493;-75
2022/01/08 06:22:21;;;;;;;30.90;9.57;;;-1.40;96.70;;;;;;5144248;27;20051;-75
2022/01/08 06:24:48;;;;;;;27.35;9.35;;;-1.40;96.70;;;;;;5147709;27;20051;-77
2022/01/08 06:27:14;;;;;;;19.77;8.90;;;-1.40;96.70;;;;;;5139901;27;20050;-75
2022/01/08 06:29:41;;;;;;;23.38;8.80;;;-1.30;96.70;;;;;;5139891;27;20054;-74
2022/01/08 06:32:08;;;;;;;25.15;9.60;;;-1.30;96.70;;;;;;5136054;27;21172;-77
2022/01/08 06:34:34;;;;;;;24.23;9.75;;;-1.30;96.70;;;;;;5137144;27;20048;-75
2022/01/08 06:37:01;;;;;;;35.95;12.40;;;-1.20;96.90;;;;;;5147107;27;20051;-74
2022/01/08 06:39:28;;;;;;;22.20;10.90;;;-1.20;96.90;;;;;;5151881;27;20051;-75
2022/01/08 06:41:54;;;;;;;27.92;11.00;;;-1.20;96.80;;;;;;5152525;27;20111;-75
2022/01/08 06:44:21;;;;;;;30.67;11.65;;;-1.20;96.80;;;;;;5147778;27;20046;-75
2022/01/08 06:46:48;;;;;;;30.38;11.38;;;-1.20;96.70;;;;;;5136815;27;20052;-76
2022/01/08 06:49:14;;;;;;;31.17;10.77;;;-1.20;96.70;;;;;;5136074;27;20052;-76
2022/01/08 06:51:42;;;;;;;30.10;9.43;;;-1.20;96.70;;;;;;5143373;27;20471;-75
2022/01/08 06:54:09;;;;;;;25.98;8.35;;;-1.20;96.60;;;;;;5141302;27;20141;-75
2022/01/08 06:56:35;;;;;;;20.10;7.57;;;-1.20;96.60;;;;;;5139067;27;20108;-75
2022/01/08 06:59:03;;;;;;;21.90;6.93;;;-1.20;96.50;;;;;;5146040;27;20942;-74
2022/01/08 07:01:30;;;;;;;20.90;7.50;;;-1.10;96.50;;;;;;5139626;27;20441;-75
2022/01/08 07:03:56;;;;;;;24.67;6.40;;;-1.10;96.50;;;;;;5139911;27;20043;-76
2022/01/08 07:06:23;;;;;;;23.75;5.82;;;-1.10;96.50;;;;;;5144405;27;20052;-78
2022/01/08 07:08:52;;;;;;;22.25;5.78;;;-1.10;96.50;;;;;;5136045;27;20056;-75
2022/01/08 07:11:19;;;;;;;24.52;5.85;;;-1.10;96.50;;;;;;5146647;27;20047;-75
2022/01/08 07:13:48;;;;;;;18.98;5.32;;;-1.00;96.50;;;;;;5143440;27;20096;-76
2022/01/08 07:16:17;;;;;;;26.58;6.13;;;-1.10;96.50;;;;;;5143394;27;20051;-75
2022/01/08 07:18:44;;;;;;;31.85;6.38;;;-1.00;96.50;;;;;;5136259;27;20040;-75
2022/01/08 07:21:11;;;;;;;25.27;6.40;;;-1.00;96.50;;;;;;5144800;27;20138;-75
2022/01/08 07:23:42;;;;;;;24.92;6.85;;;-1.00;96.60;;;;;;5144177;27;20895;-75
2022/01/08 07:26:09;;;;;;;20.30;6.15;;;-1.00;96.60;;;;;;5144647;27;20073;-75
2022/01/08 07:28:37;;;;;;;21.70;6.57;;;-0.90;96.70;;;;;;5148045;27;20709;-76
2022/01/08 07:31:04;;;;;;;20.25;6.57;;;-0.90;96.70;;;;;;5145397;27;20150;-75
2022/01/08 07:33:31;;;;;;;33.67;7.50;;;-0.90;96.70;;;;;;5150518;27;20788;-76
2022/01/08 07:35:58;;;;;;;31.77;9.10;;;-0.90;96.80;;;;;;5149353;27;20051;-76
2022/01/08 07:38:24;;;;;;;26.80;8.35;;;-0.90;96.80;;;;;;5149202;27;20055;-75
2022/01/08 07:40:52;;;;;;;24.17;8.10;;;-0.80;96.80;;;;;;5141838;27;20911;-74
2022/01/08 07:43:20;;;;;;;29.75;8.50;;;-0.90;96.90;;;;;;5139013;27;20058;-74
2022/01/08 07:45:49;;;;;;;27.15;7.32;;;-0.80;96.80;;;;;;5144209;27;20056;-74
2022/01/08 07:48:19;;;;;;;17.98;7.47;;;-0.90;96.90;;;;;;5142257;27;20052;-75
2022/01/08 07:50:48;;;;;;;34.40;8.82;;;-0.80;96.80;;;;;;5147556;27;20090;-75
2022/01/08 07:53:18;;;;;;;24.85;8.13;;;-0.80;96.80;;;;;;5151622;27;20066;-74
2022/01/08 07:55:48;;;;;;;22.55;10.13;;;-0.80;96.80;;;;;;5145230;27;20981;-75
2022/01/08 07:58:20;;;;;;;29.42;10.10;;;-0.80;96.70;;;;;;5145489;27;20134;-74
2022/01/08 08:00:48;;;;;;;29.52;10.25;;;-0.80;96.80;;;;;;5145490;27;20073;-74
2022/01/08 08:03:18;;;;;;;30.80;10.25;;;-0.70;97.00;;;;;;5145633;27;20836;-75
2022/01/08 08:05:48;;;;;;;37.00;10.30;;;-0.60;96.90;;;;;;5149105;27;20540;-76
2022/01/08 08:08:21;;;;;;;30.83;10.68;;;-0.60;96.90;;;;;;5146602;27;20051;-75
2022/01/08 08:10:50;;;;;;;34.97;10.90;;;-0.60;97.00;;;;;;5144979;27;20047;-77
2022/01/08 08:13:23;;;;;;;52.67;13.27;;;-0.50;97.00;;;;;;5136867;27;20123;-77
2022/01/08 08:15:50;;;;;;;37.58;11.63;;;-0.50;97.00;;;;;;5151610;27;20978;-75
2022/01/08 08:18:17;;;;;;;37.20;12.57;;;-0.50;97.00;;;;;;5150896;27;20509;-75
2022/01/08 08:20:44;;;;;;;37.08;12.95;;;-0.50;97.00;;;;;;5141245;27;20052;-75
2022/01/08 08:23:13;;;;;;;35.25;12.30;;;-0.50;97.00;;;;;;5146447;27;20968;-75
2022/01/08 08:25:40;;;;;;;34.70;14.30;;;-0.40;96.90;;;;;;5112077;27;20883;-77
2022/01/08 08:28:14;;;;;;;46.03;14.32;;;-0.40;97.00;;;;;;5112486;27;20056;-77
2022/01/08 08:30:43;;;;;;;30.95;12.80;;;-0.30;97.00;;;;;;5120646;27;20048;-76
2022/01/08 08:33:10;;;;;;;43.08;14.90;;;-0.40;97.00;;;;;;5104499;27;20074;-78
2022/01/08 08:35:36;;;;;;;49.65;14.23;;;-0.30;97.00;;;;;;5099772;28;20048;-75
2022/01/08 08:38:03;;;;;;;43.28;14.77;;;-0.30;97.00;;;;;;5104231;28;20036;-75
2022/01/08 08:40:30;;;;;;;42.13;15.23;;;-0.30;97.10;;;;;;5103385;28;20092;-76
2022/01/08 08:42:56;;;;;;;42.20;13.95;;;-0.20;97.00;;;;;;5104776;28;20136;-76
2022/01/08 08:45:23;;;;;;;38.63;14.80;;;-0.20;97.00;;;;;;5100158;28;20046;-76
2022/01/08 08:47:51;;;;;;;44.83;15.75;;;-0.20;97.00;;;;;;5104111;28;20785;-76
2022/01/08 08:50:18;;;;;;;41.42;15.75;;;-0.20;97.00;;;;;;5108318;28;20077;-76
2022/01/08 08:52:48;;;;;;;38.60;15.57;;;-0.10;97.10;;;;;;5105392;27;20049;-76
2022/01/08 08:55:18;;;;;;;46.10;16.13;;;-0.10;97.00;;;;;;5099437;28;20067;-76
2022/01/08 08:57:46;;;;;;;34.08;16.60;;;-0.10;97.10;;;;;;5098466;28;20141;-76
2022/01/08 09:00:13;;;;;;;44.88;16.30;;;0.00;97.00;;;;;;5101578;27;20803;-76
2022/01/08 09:02:40;;;;;;;36.65;15.18;;;0.10;97.10;;;;;;5100520;27;20167;-78
2022/01/08 09:05:07;;;;;;;42.90;16.08;;;0.10;97.10;;;;;;5104538;28;20042;-76
2022/01/08 09:07:35;;;;;;;46.80;16.77;;;0.10;97.10;;;;;;5102048;28;20048;-77
2022/01/08 09:10:03;;;;;;;35.42;15.98;;;0.20;97.10;;;;;;5106048;28;20498;-76
2022/01/08 09:12:31;;;;;;;36.05;16.77;;;0.20;97.10;;;;;;5105709;27;20044;-76
2022/01/08 09:14:58;;;;;;;42.95;17.55;;;0.20;97.00;;;;;;5095527;28;20079;-77
2022/01/08 09:17:25;;;;;;;43.65;17.13;;;0.30;97.00;;;;;;5100817;28;20053;-77
2022/01/08 09:19:52;;;;;;;46.13;17.60;;;0.30;96.90;;;;;;5104337;28;20048;-76
2022/01/08 09:22:19;;;;;;;35.42;16.80;;;0.40;97.00;;;;;;5098655;28;20147;-76
2022/01/08 09:24:46;;;;;;;38.97;17.50;;;0.40;96.90;;;;;;5098036;27;20052;-77
2022/01/08 09:27:13;;;;;;;39.83;16.02;;;0.40;96.80;;;;;;5103622;28;20039;-77
2022/01/08 09:29:40;;;;;;;37.33;15.30;;;0.40;96.80;;;;;;5110476;28;20058;-78
2022/01/08 09:32:08;;;;;;;35.13;14.90;;;0.50;96.60;;;;;;5106850;28;20047;-77
2022/01/08 09:34:40;;;;;;;43.70;17.35;;;0.50;96.70;;;;;;5114752;27;20054;-78
2022/01/08 09:37:07;;;;;;;35.03;16.13;;;0.60;96.50;;;;;;5103807;28;20035;-78
2022/01/08 09:39:34;;;;;;;42.15;15.02;;;0.60;96.60;;;;;;5111535;28;20040;-80
2022/01/08 09:42:03;;;;;;;37.92;16.48;;;0.60;96.50;;;;;;5111967;28;20044;-78
2022/01/08 09:44:29;;;;;;;43.40;16.90;;;0.60;96.50;;;;;;5111315;27;20088;-79
2022/01/08 09:46:56;;;;;;;36.63;16.02;;;0.70;96.40;;;;;;5114031;28;20093;-80
2022/01/08 09:49:23;;;;;;;47.20;16.08;;;0.70;96.40;;;;;;5120261;27;20108;-79
2022/01/08 09:51:49;;;;;;;42.67;16.92;;;0.80;96.40;;;;;;5114583;27;20640;-80
2022/01/08 09:54:19;;;;;;;38.92;16.27;;;0.80;96.40;;;;;;5123125;28;20040;-80
2022/01/08 09:57:00;;;;;;;;;;;0.90;96.30;;;;;;5116122;27;20060;-79
2022/01/08 09:59:28;;;;;;;34.67;14.40;;;1.00;96.30;;;;;;5118681;28;19919;-80
2022/01/08 10:01:58;;;;;;;38.90;16.73;;;1.10;96.20;;;;;;5122151;28;20310;-80
2022/01/08 10:04:36;;;;;;;36.50;15.73;;;1.20;96.20;;;;;;5123863;27;20079;-79
2022/01/08 10:07:21;;;;;;;33.97;15.18;;;1.20;96.10;;;;;;5114413;27;20031;-80
2022/01/08 10:10:13;;;;;;;36.83;14.80;;;1.30;95.80;;;;;;5119649;28;20403;-80
2022/01/08 10:12:54;;;;;;;31.25;14.57;;;1.30;95.60;;;;;;5117953;28;20045;-79
2022/01/08 10:18:33;;;;;;;36.80;15.52;;;1.40;95.50;;;;;;5124641;28;20052;-80
2022/01/08 10:21:13;;;;;;;35.63;15.95;;;1.40;95.40;;;;;;5116837;28;20140;-80
2022/01/08 10:23:43;;;;;;;31.75;15.55;;;1.40;95.40;;;;;;5120102;28;20048;-78
2022/01/08 10:26:16;;;;;;;34.20;15.50;;;1.40;95.30;;;;;;5121002;28;20048;-79
2022/01/08 10:28:46;;;;;;;31.33;16.08;;;1.50;95.20;;;;;;5123058;27;20060;-78
2022/01/08 10:31:14;;;;;;;39.88;15.10;;;1.50;95.00;;;;;;5120407;27;20044;-80
2022/01/08 10:33:45;;;;;;;33.83;17.30;;;1.60;95.00;;;;;;5119113;27;20084;-79
2022/01/08 10:36:33;;;;;;;36.70;16.40;;;1.60;95.00;;;;;;5116673;28;20245;-79
2022/01/08 10:39:03;;;;;;;32.80;15.20;;;1.70;95.00;;;;;;5119421;27;20143;-79
2022/01/08 10:41:46;;;;;;;30.77;16.88;;;1.70;94.60;;;;;;5119847;28;20040;-79
2022/01/08 10:44:17;;;;;;;34.05;15.82;;;1.70;94.50;;;;;;5114910;27;20048;-79
2022/01/08 10:47:08;;;;;;;37.28;16.67;;;1.70;94.40;;;;;;5115588;28;20036;-80
2022/01/08 10:49:49;;;;;;;42.58;16.58;;;1.80;94.30;;;;;;5116769;28;20845;-80
2022/01/08 10:52:20;;;;;;;37.40;15.57;;;1.80;94.50;;;;;;5119351;28;20147;-80
2022/01/08 10:54:58;;;;;;;32.42;14.10;;;1.80;94.60;;;;;;5118628;28;20104;-79
2022/01/08 10:57:36;;;;;;;29.95;13.43;;;1.90;94.10;;;;;;5126721;27;20094;-78
2022/01/08 11:00:08;;;;;;;31.40;13.32;;;2.00;93.70;;;;;;5126572;28;20147;-79
2022/01/08 11:02:35;;;;;;;26.63;11.95;;;2.10;93.60;;;;;;5117753;28;20075;-79
2022/01/08 11:05:06;;;;;;;22.58;10.95;;;2.20;94.10;;;;;;5118767;28;20481;-78
2022/01/08 11:07:34;;;;;;;25.40;11.32;;;2.20;92.70;;;;;;5118291;27;20043;-79
2022/01/08 11:10:06;;;;;;;25.23;11.77;;;2.30;92.80;;;;;;5112567;28;20108;-78
2022/01/08 11:12:38;;;;;;;25.75;11.65;;;2.40;93.00;;;;;;5108540;28;20116;-80
2022/01/08 11:17:52;;;;;;;24.58;9.95;;;2.60;93.50;;;;;;5110662;28;20044;-79
2022/01/08 11:20:40;;;;;;;23.92;11.20;;;2.60;92.20;;;;;;5107905;28;20056;-80
2022/01/08 11:23:15;;;;;;;22.52;10.35;;;2.60;91.80;;;;;;5120511;28;20044;-79
2022/01/08 11:25:48;;;;;;;26.25;12.10;;;2.60;91.70;;;;;;5120511;28;20059;-78
2022/01/08 11:28:17;;;;;;;23.25;10.88;;;2.60;92.50;;;;;;5109888;28;20057;-79
2022/01/08 11:30:47;;;;;;;22.67;11.55;;;2.60;91.40;;;;;;5112407;28;20055;-80
2022/01/08 11:33:43;;;;;;;22.30;11.43;;;2.60;91.90;;;;;;5112917;27;20894;-79
2022/01/08 11:36:04;;;;;;;21.42;10.65;;;2.60;91.30;;;;;;5117604;27;20086;-80
2022/01/08 11:38:31;;;;;;;25.83;12.15;;;2.70;92.00;;;;;;5117128;28;20080;-79
2022/01/08 11:40:59;;;;;;;27.13;12.15;;;2.60;91.20;;;;;;5129052;28;20092;-79
2022/01/08 11:43:28;;;;;;;28.75;11.98;;;2.70;91.40;;;;;;5120442;27;20041;-79
2022/01/08 11:46:00;;;;;;;25.13;11.68;;;2.70;91.10;;;;;;5118004;28;20051;-80
2022/01/08 11:48:37;;;;;;;22.33;10.88;;;2.70;90.50;;;;;;5118276;28;20093;-78
2022/01/08 11:51:06;;;;;;;22.80;12.15;;;2.70;90.30;;;;;;5114297;28;20059;-80
2022/01/08 11:53:57;;;;;;;21.63;11.27;;;2.80;91.00;;;;;;5117951;28;20037;-79
2022/01/08 11:56:28;;;;;;;31.38;11.73;;;2.80;90.50;;;;;;5115817;28;20044;-79
2022/01/08 11:59:08;;;;;;;24.33;12.68;;;2.90;90.30;;;;;;5123404;27;20084;-80
2022/01/08 12:01:37;;;;;;;26.25;13.27;;;2.90;90.90;;;;;;5119771;28;20092;-80
2022/01/08 12:04:06;;;;;;;24.70;11.18;;;2.90;90.00;;;;;;5122914;27;20101;-79
2022/01/08 12:06:36;;;;;;;24.17;11.10;;;2.90;90.60;;;;;;5132273;27;20606;-79
2022/01/08 12:09:22;;;;;;;24.65;10.95;;;2.90;90.70;;;;;;5122009;27;20032;-80
2022/01/08 12:12:04;;;;;;;25.10;10.57;;;2.90;90.30;;;;;;5127612;27;20041;-76
2022/01/08 12:14:34;;;;;;;28.98;11.10;;;2.90;90.60;;;;;;5131712;27;20053;-76
2022/01/08 12:17:27;;;;;;;21.05;10.18;;;2.90;90.60;;;;;;5120341;27;20048;-81
2022/01/08 12:19:58;;;;;;;26.92;11.18;;;2.80;90.60;;;;;;5120149;28;20047;-78
2022/01/08 12:22:38;;;;;;;24.73;11.60;;;2.80;90.30;;;;;;5118880;27;20045;-80
2022/01/08 12:25:47;;;;;;;25.52;11.10;;;2.80;90.20;;;;;;5137817;27;20044;-79
2022/01/08 12:28:40;;;;;;;25.03;10.67;;;2.80;90.10;;;;;;5125705;28;20040;-80
2022/01/08 12:31:28;;;;;;;23.35;10.40;;;2.80;90.30;;;;;;5128031;27;20299;-79
2022/01/08 12:34:25;;;;;;;20.35;9.85;;;2.80;90.50;;;;;;5125789;28;20028;-79
2022/01/08 12:37:12;;;;;;;21.83;10.30;;;2.80;89.80;;;;;;5119633;28;20051;-80
2022/01/08 12:39:58;;;;;;;23.02;10.85;;;2.80;90.10;;;;;;5123042;27;20099;-80
2022/01/08 12:42:50;;;;;;;25.60;10.20;;;2.80;90.40;;;;;;5127343;27;20078;-81
2022/01/08 12:45:33;;;;;;;26.13;10.47;;;2.80;90.50;;;;;;5123263;27;20012;-79
2022/01/08 12:48:00;;;;;;;23.25;9.57;;;2.80;91.00;;;;;;5135885;27;20060;-81
2022/01/08 12:50:47;;;;;;;20.17;8.73;;;2.80;90.80;;;;;;5120222;27;20045;-80
2022/01/08 12:53:23;;;;;;;18.20;8.93;;;2.80;90.80;;;;;;5124690;28;20032;-79
2022/01/08 12:55:58;;;;;;;21.83;9.35;;;2.80;91.00;;;;;;5116930;27;20056;-79
2022/01/08 12:58:56;;;;;;;23.42;8.95;;;2.80;91.20;;;;;;5132119;27;20048;-79
2022/01/08 13:01:28;;;;;;;22.70;9.45;;;2.80;91.30;;;;;;5127849;27;20043;-78
2022/01/08 13:03:57;;;;;;;16.40;9.25;;;2.80;91.30;;;;;;5124897;27;20053;-78
2022/01/08 13:06:35;;;;;;;18.40;8.95;;;2.80;91.00;;;;;;5130376;27;20087;-79
2022/01/08 13:09:04;;;;;;;19.35;8.38;;;2.80;91.10;;;;;;5129973;27;20044;-79
2022/01/08 13:11:42;;;;;;;19.20;8.80;;;2.80;91.10;;;;;;5124274;27;20055;-78
2022/01/08 13:14:14;;;;;;;20.13;8.80;;;2.90;91.80;;;;;;5122872;28;20046;-79
2022/01/08 13:17:01;;;;;;;15.77;7.30;;;2.90;91.60;;;;;;5115321;27;20035;-78